createdAt,value
2022-09-18T00:00:11.107Z,3.53
2022-09-18T00:00:58.127Z,3.45
2022-09-18T00:01:44.872Z,2.87
2022-09-18T00:02:32.246Z,3.42
2022-09-18T00:03:19.033Z,3.83
2022-09-18T00:04:07.609Z,3.20
2022-09-18T00:04:54.427Z,3.45
2022-09-18T00:05:41.416Z,3.40
2022-09-18T00:06:33.467Z,3.42
2022-09-18T00:07:20.957Z,3.50
2022-09-18T00:08:08.357Z,3.25
2022-09-18T00:08:57.698Z,3.35
2022-09-18T00:09:44.597Z,3.20
2022-09-18T00:10:31.567Z,3.08
2022-09-18T00:11:19.397Z,3.58
2022-09-18T00:12:06.256Z,3.20
2022-09-18T00:12:52.990Z,3.30
2022-09-18T00:13:41.171Z,3.25
2022-09-18T00:14:27.847Z,3.22
2022-09-18T00:15:14.597Z,3.00
2022-09-18T00:16:01.629Z,3.20
2022-09-18T00:16:49.684Z,3.47
2022-09-18T00:17:36.326Z,3.20
2022-09-18T00:18:23.027Z,3.40
2022-09-18T00:19:10.587Z,3.95
2022-09-18T00:19:57.257Z,3.03
2022-09-18T00:20:43.956Z,2.90
2022-09-18T00:21:32.099Z,3.50
2022-09-18T00:22:18.837Z,3.22
2022-09-18T00:23:05.697Z,3.20
2022-09-18T00:23:57.437Z,3.35
2022-09-18T00:24:44.187Z,3.25
2022-09-18T00:25:32.267Z,3.97
2022-09-18T00:26:19.188Z,3.12
2022-09-18T00:27:06.237Z,3.12
2022-09-18T00:27:53.089Z,3.20
2022-09-18T00:28:39.958Z,3.15
2022-09-18T00:29:26.957Z,3.70
2022-09-18T00:30:13.907Z,3.00
2022-09-18T00:31:05.689Z,3.40
2022-09-18T00:31:52.773Z,3.62
2022-09-18T00:32:39.586Z,3.30
2022-09-18T00:33:26.289Z,3.33
2022-09-18T00:34:14.744Z,3.42
2022-09-18T00:35:01.447Z,3.40
2022-09-18T00:35:48.148Z,3.50
2022-09-18T00:36:36.107Z,3.10
2022-09-18T00:37:22.837Z,3.20
2022-09-18T00:38:10.066Z,3.30
2022-09-18T00:38:59.407Z,3.20
2022-09-18T00:39:46.306Z,3.20
2022-09-18T00:40:33.080Z,3.67
2022-09-18T00:41:26.288Z,3.30
2022-09-18T00:42:13.328Z,3.30
2022-09-18T00:43:25.966Z,3.50
2022-09-18T00:44:33.549Z,3.42
2022-09-18T00:45:20.364Z,3.25
2022-09-18T00:46:17.328Z,3.47
2022-09-18T00:47:09.836Z,3.00
2022-09-18T00:47:56.639Z,3.55
2022-09-18T00:49:04.757Z,3.37
2022-09-18T00:49:57.478Z,2.97
2022-09-18T00:50:44.147Z,3.15
2022-09-18T00:51:35.217Z,3.10
2022-09-18T00:52:25.381Z,2.87
2022-09-18T00:53:12.366Z,3.28
2022-09-18T00:54:06.999Z,3.12
2022-09-18T00:54:57.197Z,3.20
2022-09-18T00:55:44.088Z,3.50
2022-09-18T00:56:30.907Z,3.17
2022-09-18T00:57:20.424Z,3.05
2022-09-18T00:58:07.068Z,3.17
2022-09-18T00:58:54.157Z,3.08
2022-09-18T00:59:43.566Z,3.10
2022-09-18T01:00:31.580Z,3.10
2022-09-18T01:01:18.243Z,3.50
2022-09-18T01:02:05.349Z,3.37
2022-09-18T01:02:52.207Z,3.30
2022-09-18T01:03:39.057Z,2.92
2022-09-18T01:04:26.229Z,3.08
2022-09-18T01:05:16.666Z,3.37
2022-09-18T01:06:31.766Z,3.58
2022-09-18T01:07:43.887Z,3.00
2022-09-18T01:08:53.496Z,3.10
2022-09-18T01:09:42.626Z,3.22
2022-09-18T01:10:41.056Z,2.70
2022-09-18T01:11:30.446Z,3.50
2022-09-18T01:12:48.927Z,3.50
2022-09-18T01:13:50.797Z,3.20
2022-09-18T01:14:44.568Z,3.05
2022-09-18T01:15:37.692Z,3.30
2022-09-18T01:16:39.750Z,3.65
2022-09-18T01:17:36.542Z,2.97
2022-09-18T01:18:25.663Z,3.62
2022-09-18T01:19:36.327Z,3.15
2022-09-18T01:20:31.532Z,3.10
2022-09-18T01:21:41.187Z,3.42
2022-09-18T01:23:01.577Z,3.40
2022-09-18T01:23:57.127Z,3.80
2022-09-18T01:24:49.767Z,3.30
2022-09-18T01:25:51.648Z,3.33
2022-09-18T01:26:55.476Z,3.30
2022-09-18T01:27:42.011Z,3.25
2022-09-18T01:28:37.346Z,3.30
2022-09-18T01:29:31.067Z,3.10
2022-09-18T01:30:17.817Z,3.30
2022-09-18T01:31:28.469Z,3.25
2022-09-18T01:32:22.416Z,3.20
2022-09-18T01:33:28.737Z,3.30
2022-09-18T01:34:35.067Z,3.10
2022-09-18T01:35:41.935Z,3.80
2022-09-18T01:36:31.031Z,3.28
2022-09-18T01:37:41.096Z,2.95
2022-09-18T01:38:36.393Z,3.50
2022-09-18T01:39:56.559Z,3.30
2022-09-18T01:40:50.768Z,3.20
2022-09-18T01:41:38.546Z,3.47
2022-09-18T01:42:26.817Z,3.20
2022-09-18T01:43:15.966Z,3.33
2022-09-18T01:44:10.297Z,3.10
2022-09-18T01:44:59.667Z,3.40
2022-09-18T01:45:51.726Z,3.20
2022-09-18T01:46:39.780Z,3.40
2022-09-18T01:47:29.727Z,3.20
2022-09-18T01:48:27.687Z,3.58
2022-09-18T01:49:18.218Z,3.15
2022-09-18T01:50:05.407Z,3.05
2022-09-18T01:50:55.382Z,3.00
2022-09-18T01:51:47.736Z,3.10
2022-09-18T01:52:40.057Z,3.45
2022-09-18T01:53:34.138Z,3.45
2022-09-18T01:54:24.848Z,2.90
2022-09-18T01:56:11.147Z,3.20
2022-09-18T01:57:07.648Z,3.10
2022-09-18T01:58:12.547Z,3.50
2022-09-18T01:59:03.047Z,3.05
2022-09-18T01:59:56.497Z,3.10
2022-09-18T02:00:46.518Z,3.12
2022-09-18T02:01:34.024Z,3.17
2022-09-18T02:02:25.541Z,3.03
2022-09-18T02:03:16.598Z,2.78
2022-09-18T02:04:08.397Z,2.78
2022-09-18T02:04:58.186Z,3.50
2022-09-18T02:05:49.129Z,3.12
2022-09-18T02:06:59.342Z,2.60
2022-09-18T02:07:52.217Z,3.10
2022-09-18T02:08:44.647Z,2.70
2022-09-18T02:09:31.497Z,2.85
2022-09-18T02:10:19.727Z,3.00
2022-09-18T02:11:17.608Z,2.92
2022-09-18T02:12:06.204Z,3.00
2022-09-18T02:12:54.227Z,2.95
2022-09-18T02:13:42.397Z,2.65
2022-09-18T02:14:33.803Z,2.67
2022-09-18T02:15:21.656Z,3.10
2022-09-18T02:16:16.376Z,2.78
2022-09-18T02:17:07.538Z,3.00
2022-09-18T02:17:57.956Z,2.80
2022-09-18T02:18:46.647Z,2.97
2022-09-18T02:19:38.927Z,2.90
2022-09-18T02:20:28.836Z,3.03
2022-09-18T02:21:17.811Z,3.08
2022-09-18T02:22:07.666Z,2.80
2022-09-18T02:22:57.434Z,3.10
2022-09-18T02:23:44.607Z,3.25
2022-09-18T02:24:34.587Z,2.95
2022-09-18T02:25:26.306Z,2.90
2022-09-18T02:26:13.241Z,2.78
2022-09-18T02:27:00.631Z,2.65
2022-09-18T02:27:48.797Z,2.90
2022-09-18T02:28:37.486Z,3.03
2022-09-18T02:29:24.847Z,2.80
2022-09-18T02:30:11.946Z,2.70
2022-09-18T02:31:01.589Z,2.80
2022-09-18T02:31:50.109Z,3.10
2022-09-18T02:32:38.556Z,2.58
2022-09-18T02:33:33.546Z,2.78
2022-09-18T02:34:20.866Z,2.70
2022-09-18T02:35:09.549Z,2.50
2022-09-18T02:36:17.256Z,2.42
2022-09-18T02:37:34.896Z,2.90
2022-09-18T02:38:49.588Z,2.78
2022-09-18T02:40:02.011Z,3.00
2022-09-18T02:41:15.457Z,3.00
2022-09-18T02:42:17.286Z,3.22
2022-09-18T02:43:32.717Z,2.70
2022-09-18T02:44:30.587Z,2.53
2022-09-18T02:46:14.362Z,2.67
2022-09-18T02:47:17.396Z,2.47
2022-09-18T02:48:18.979Z,2.53
2022-09-18T02:49:10.117Z,2.90
2022-09-18T02:50:00.293Z,3.05
2022-09-18T02:51:05.467Z,2.25
2022-09-18T02:51:56.778Z,2.58
2022-09-18T02:53:03.166Z,2.47
2022-09-18T02:54:03.551Z,2.45
2022-09-18T02:54:55.726Z,2.80
2022-09-18T02:55:46.697Z,2.90
2022-09-18T02:56:33.246Z,2.65
2022-09-18T02:57:27.096Z,2.53
2022-09-18T02:58:22.968Z,3.08
2022-09-18T02:59:16.596Z,2.95
2022-09-18T03:00:05.107Z,2.90
2022-09-18T03:00:52.222Z,3.08
2022-09-18T03:01:42.257Z,3.53
2022-09-18T03:02:29.222Z,2.95
2022-09-18T03:03:18.058Z,2.95
2022-09-18T03:04:05.547Z,2.62
2022-09-18T03:04:52.585Z,2.85
2022-09-18T03:05:39.207Z,2.70
2022-09-18T03:06:25.934Z,2.53
2022-09-18T03:07:14.698Z,2.78
2022-09-18T03:08:02.628Z,2.55
2022-09-18T03:08:50.136Z,2.83
2022-09-18T03:09:37.368Z,2.60
2022-09-18T03:10:23.946Z,2.75
2022-09-18T03:11:10.551Z,3.28
2022-09-18T03:11:57.167Z,2.47
2022-09-18T03:12:43.868Z,2.53
2022-09-18T03:13:30.507Z,2.95
2022-09-18T03:14:17.151Z,2.55
2022-09-18T03:15:04.297Z,2.85
2022-09-18T03:15:51.111Z,2.67
2022-09-18T03:16:37.786Z,3.05
2022-09-18T03:17:24.406Z,2.80
2022-09-18T03:18:10.996Z,2.92
2022-09-18T03:19:00.638Z,2.62
2022-09-18T03:19:47.667Z,3.10
2022-09-18T03:20:34.287Z,3.03
2022-09-18T03:21:25.027Z,3.10
2022-09-18T03:22:12.036Z,2.80
2022-09-18T03:22:58.626Z,2.83
2022-09-18T03:23:45.803Z,2.55
2022-09-18T03:24:32.468Z,2.72
2022-09-18T03:25:19.129Z,2.83
2022-09-18T03:26:05.906Z,2.55
2022-09-18T03:26:53.028Z,2.60
2022-09-18T03:27:39.608Z,2.45
2022-09-18T03:28:26.186Z,3.03
2022-09-18T03:29:13.706Z,2.72
2022-09-18T03:30:00.288Z,2.78
2022-09-18T03:30:47.086Z,2.67
2022-09-18T03:31:33.756Z,2.60
2022-09-18T03:32:20.417Z,2.85
2022-09-18T03:33:07.067Z,2.97
2022-09-18T03:33:53.666Z,3.25
2022-09-18T03:34:40.257Z,2.92
2022-09-18T03:35:27.188Z,2.62
2022-09-18T03:36:13.798Z,2.78
2022-09-18T03:37:00.387Z,3.10
2022-09-18T03:37:47.068Z,2.92
2022-09-18T03:38:34.068Z,2.80
2022-09-18T03:39:20.659Z,2.70
2022-09-18T03:40:08.104Z,2.47
2022-09-18T03:40:54.798Z,2.97
2022-09-18T03:41:41.746Z,3.05
2022-09-18T03:42:28.344Z,2.75
2022-09-18T03:43:14.949Z,2.65
2022-09-18T03:44:01.777Z,2.83
2022-09-18T03:44:48.397Z,2.97
2022-09-18T03:45:34.977Z,2.83
2022-09-18T03:46:24.580Z,2.47
2022-09-18T03:47:11.267Z,2.90
2022-09-18T03:47:58.495Z,3.33
2022-09-18T03:48:45.129Z,3.00
2022-09-18T03:49:31.708Z,2.50
2022-09-18T03:50:18.326Z,2.50
2022-09-18T03:51:05.024Z,2.47
2022-09-18T03:51:51.618Z,2.50
2022-09-18T03:52:38.477Z,3.15
2022-09-18T03:53:25.177Z,2.35
2022-09-18T03:54:11.767Z,2.87
2022-09-18T03:54:58.455Z,2.90
2022-09-18T03:55:45.158Z,2.78
2022-09-18T03:56:32.217Z,2.70
2022-09-18T03:57:18.787Z,3.00
2022-09-18T03:58:05.467Z,2.83
2022-09-18T03:58:53.357Z,3.05
2022-09-18T03:59:39.966Z,2.47
2022-09-18T04:00:26.566Z,2.80
2022-09-18T04:01:13.853Z,2.50
2022-09-18T04:02:00.767Z,2.75
2022-09-18T04:02:47.444Z,2.95
2022-09-18T04:03:34.667Z,3.10
2022-09-18T04:04:21.346Z,2.83
2022-09-18T04:05:08.288Z,2.90
2022-09-18T04:05:54.867Z,2.80
2022-09-18T04:06:41.507Z,2.70
2022-09-18T04:07:28.129Z,2.72
2022-09-18T04:08:14.706Z,2.87
2022-09-18T04:09:01.429Z,2.80
2022-09-18T04:09:48.076Z,2.90
2022-09-18T04:10:34.707Z,3.10
2022-09-18T04:11:21.346Z,2.70
2022-09-18T04:12:08.007Z,2.83
2022-09-18T04:12:54.617Z,2.95
2022-09-18T04:13:41.265Z,2.80
2022-09-18T04:14:30.060Z,2.45
2022-09-18T04:15:17.147Z,2.90
2022-09-18T04:16:03.825Z,2.90
2022-09-18T04:16:50.457Z,2.50
2022-09-18T04:17:37.058Z,3.00
2022-09-18T04:18:23.649Z,2.40
2022-09-18T04:19:10.287Z,2.70
2022-09-18T04:19:56.896Z,2.55
2022-09-18T04:20:43.546Z,2.40
2022-09-18T04:21:30.137Z,2.67
2022-09-18T04:22:16.749Z,2.50
2022-09-18T04:23:03.488Z,3.05
2022-09-18T04:23:50.068Z,2.65
2022-09-18T04:24:36.766Z,2.30
2022-09-18T04:25:23.357Z,2.72
2022-09-18T04:26:10.491Z,2.50
2022-09-18T04:26:57.087Z,2.85
2022-09-18T04:27:43.718Z,2.70
2022-09-18T04:28:30.346Z,2.42
2022-09-18T04:29:16.947Z,2.62
2022-09-18T04:30:07.447Z,2.60
2022-09-18T04:30:54.105Z,3.15
2022-09-18T04:31:40.811Z,2.37
2022-09-18T04:32:27.478Z,2.28
2022-09-18T04:33:17.229Z,2.50
2022-09-18T04:34:03.837Z,2.25
2022-09-18T04:34:50.487Z,2.40
2022-09-18T04:35:37.157Z,2.67
2022-09-18T04:36:23.767Z,2.42
2022-09-18T04:37:10.708Z,2.75
2022-09-18T04:37:57.567Z,2.35
2022-09-18T04:38:44.187Z,2.45
2022-09-18T04:39:32.548Z,2.50
2022-09-18T04:40:19.362Z,2.58
2022-09-18T04:41:06.166Z,2.35
2022-09-18T04:41:52.756Z,2.50
2022-09-18T04:42:39.387Z,2.17
2022-09-18T04:43:27.124Z,2.30
2022-09-18T04:44:13.947Z,2.15
2022-09-18T04:45:00.516Z,2.50
2022-09-18T04:45:48.107Z,2.10
2022-09-18T04:46:34.937Z,1.98
2022-09-18T04:47:21.571Z,2.50
2022-09-18T04:48:08.271Z,2.85
2022-09-18T04:48:55.087Z,2.17
2022-09-18T04:49:41.736Z,2.03
2022-09-18T04:50:28.476Z,2.20
2022-09-18T04:51:15.557Z,2.40
2022-09-18T04:52:02.668Z,2.08
2022-09-18T04:52:49.325Z,2.12
2022-09-18T04:53:37.987Z,1.90
2022-09-18T04:54:24.587Z,2.20
2022-09-18T04:55:11.266Z,1.87
2022-09-18T04:55:57.852Z,2.08
2022-09-18T04:56:44.450Z,1.92
2022-09-18T04:57:31.188Z,2.00
2022-09-18T04:58:18.946Z,2.15
2022-09-18T04:59:05.667Z,1.80
2022-09-18T04:59:53.199Z,2.28
2022-09-18T05:00:40.228Z,2.05
2022-09-18T05:01:26.926Z,2.35
2022-09-18T05:02:13.579Z,2.15
2022-09-18T05:03:02.736Z,2.20
2022-09-18T05:03:49.367Z,2.20
2022-09-18T05:04:36.039Z,2.67
2022-09-18T05:05:22.777Z,2.10
2022-09-18T05:06:09.367Z,1.92
2022-09-18T05:06:56.557Z,2.47
2022-09-18T05:07:43.247Z,2.17
2022-09-18T05:08:30.207Z,2.17
2022-09-18T05:09:16.806Z,1.77
2022-09-18T05:10:05.112Z,2.25
2022-09-18T05:10:52.107Z,1.80
2022-09-18T05:11:38.748Z,2.10
2022-09-18T05:12:25.370Z,2.12
2022-09-18T05:13:12.026Z,1.98
2022-09-18T05:13:59.527Z,1.98
2022-09-18T05:14:46.137Z,1.98
2022-09-18T05:15:33.407Z,2.00
2022-09-18T05:16:20.059Z,2.17
2022-09-18T05:17:06.747Z,2.40
2022-09-18T05:18:09.100Z,2.25
2022-09-18T05:18:57.966Z,2.12
2022-09-18T05:19:44.583Z,2.20
2022-09-18T05:20:31.499Z,2.10
2022-09-18T05:21:18.737Z,2.20
2022-09-18T05:22:05.560Z,2.10
2022-09-18T05:22:52.167Z,2.35
2022-09-18T05:23:38.766Z,3.20
2022-09-18T05:24:25.399Z,1.95
2022-09-18T05:25:12.027Z,1.98
2022-09-18T05:25:58.649Z,2.05
2022-09-18T05:26:45.457Z,1.77
2022-09-18T05:27:32.926Z,2.03
2022-09-18T05:28:19.516Z,2.85
2022-09-18T05:29:06.106Z,1.80
2022-09-18T05:29:53.297Z,2.10
2022-09-18T05:30:39.896Z,2.30
2022-09-18T05:31:26.576Z,2.22
2022-09-18T05:32:13.226Z,1.90
2022-09-18T05:33:04.669Z,2.25
2022-09-18T05:33:51.378Z,1.98
2022-09-18T05:34:38.076Z,2.53
2022-09-18T05:35:26.419Z,1.80
2022-09-18T05:36:13.218Z,2.15
2022-09-18T05:36:59.954Z,2.12
2022-09-18T05:37:46.568Z,1.62
2022-09-18T05:38:33.627Z,1.83
2022-09-18T05:39:20.487Z,2.33
2022-09-18T05:40:07.392Z,2.03
2022-09-18T05:40:54.065Z,1.83
2022-09-18T05:41:40.657Z,2.45
2022-09-18T05:42:27.353Z,2.20
2022-09-18T05:43:13.966Z,1.87
2022-09-18T05:44:00.536Z,3.08
2022-09-18T05:44:47.306Z,1.95
2022-09-18T05:45:34.799Z,1.98
2022-09-18T05:46:21.523Z,1.98
2022-09-18T05:47:08.151Z,2.05
2022-09-18T05:47:58.476Z,2.80
2022-09-18T05:48:45.147Z,3.25
2022-09-18T05:49:31.746Z,2.80
2022-09-18T05:50:18.416Z,2.40
2022-09-18T05:51:05.528Z,2.25
2022-09-18T05:51:52.287Z,2.85
2022-09-18T05:52:39.066Z,2.25
2022-09-18T05:53:25.867Z,2.08
2022-09-18T05:54:12.868Z,1.92
2022-09-18T05:54:59.546Z,2.70
2022-09-18T05:55:46.169Z,2.37
2022-09-18T05:56:32.893Z,2.62
2022-09-18T05:57:19.537Z,2.28
2022-09-18T05:58:07.477Z,3.03
2022-09-18T05:58:54.367Z,2.60
2022-09-18T05:59:40.937Z,2.35
2022-09-18T06:00:29.169Z,2.47
2022-09-18T06:01:15.807Z,2.10
2022-09-18T06:02:02.551Z,2.17
2022-09-18T06:02:56.657Z,2.50
2022-09-18T06:03:43.526Z,2.42
2022-09-18T06:04:30.107Z,2.47
2022-09-18T06:05:16.686Z,2.12
2022-09-18T06:06:03.389Z,2.40
2022-09-18T06:06:50.106Z,2.00
2022-09-18T06:07:36.726Z,1.85
2022-09-18T06:08:23.474Z,2.30
2022-09-18T06:09:10.089Z,2.28
2022-09-18T06:09:56.870Z,1.95
2022-09-18T06:10:43.476Z,2.17
2022-09-18T06:11:30.087Z,2.25
2022-09-18T06:12:16.687Z,2.08
2022-09-18T06:13:08.306Z,2.80
2022-09-18T06:13:54.968Z,2.20
2022-09-18T06:14:41.606Z,2.50
2022-09-18T06:15:28.268Z,2.60
2022-09-18T06:16:15.848Z,2.20
2022-09-18T06:17:02.475Z,3.53
2022-09-18T06:17:51.998Z,2.42
2022-09-18T06:18:38.588Z,2.58
2022-09-18T06:19:25.350Z,2.33
2022-09-18T06:20:12.141Z,2.58
2022-09-18T06:20:59.318Z,2.92
2022-09-18T06:21:45.927Z,3.00
2022-09-18T06:22:33.077Z,2.60
2022-09-18T06:23:19.787Z,2.62
2022-09-18T06:24:06.708Z,2.78
2022-09-18T06:24:53.327Z,2.97
2022-09-18T06:25:40.097Z,2.62
2022-09-18T06:26:26.707Z,2.35
2022-09-18T06:27:13.307Z,2.80
2022-09-18T06:28:00.660Z,2.45
2022-09-18T06:28:48.418Z,2.28
2022-09-18T06:29:35.127Z,2.15
2022-09-18T06:30:21.757Z,2.08
2022-09-18T06:31:10.021Z,2.22
2022-09-18T06:31:56.976Z,2.58
2022-09-18T06:32:43.785Z,2.00
2022-09-18T06:33:30.458Z,2.05
2022-09-18T06:34:17.369Z,2.58
2022-09-18T06:35:04.449Z,2.20
2022-09-18T06:35:51.929Z,2.28
2022-09-18T06:36:38.628Z,2.55
2022-09-18T06:37:25.338Z,2.05
2022-09-18T06:38:11.937Z,1.90
2022-09-18T06:38:58.601Z,2.28
2022-09-18T06:39:45.637Z,2.10
2022-09-18T06:40:32.641Z,2.53
2022-09-18T06:41:19.286Z,2.30
2022-09-18T06:42:06.007Z,1.85
2022-09-18T06:42:56.989Z,2.17
2022-09-18T06:43:43.887Z,1.92
2022-09-18T06:44:30.547Z,2.08
2022-09-18T06:45:17.221Z,2.22
2022-09-18T06:46:04.648Z,1.42
2022-09-18T06:46:51.413Z,2.10
2022-09-18T06:47:38.087Z,1.87
2022-09-18T06:48:25.227Z,2.95
2022-09-18T06:49:12.678Z,2.45
2022-09-18T06:49:59.296Z,2.10
2022-09-18T06:50:52.097Z,1.80
2022-09-18T06:51:40.608Z,2.03
2022-09-18T06:52:27.288Z,1.73
2022-09-18T06:53:14.107Z,2.05
2022-09-18T06:54:00.718Z,2.97
2022-09-18T06:54:47.359Z,2.33
2022-09-18T06:55:34.195Z,2.42
2022-09-18T06:56:21.026Z,2.78
2022-09-18T06:57:07.859Z,2.03
2022-09-18T06:57:55.907Z,2.42
2022-09-18T06:58:42.507Z,2.20
2022-09-18T06:59:30.081Z,2.30
2022-09-18T07:00:16.777Z,1.80
2022-09-18T07:01:03.591Z,1.55
2022-09-18T07:01:50.621Z,2.20
2022-09-18T07:02:37.982Z,1.98
2022-09-18T07:03:24.798Z,1.92
2022-09-18T07:04:11.678Z,1.87
2022-09-18T07:04:58.417Z,1.80
2022-09-18T07:05:48.015Z,1.70
2022-09-18T07:06:34.627Z,2.15
2022-09-18T07:07:21.437Z,1.85
2022-09-18T07:08:08.717Z,2.00
2022-09-18T07:08:56.250Z,2.05
2022-09-18T07:09:43.259Z,2.15
2022-09-18T07:10:30.007Z,1.83
2022-09-18T07:11:16.678Z,1.67
2022-09-18T07:12:03.489Z,2.53
2022-09-18T07:12:50.786Z,1.65
2022-09-18T07:13:37.730Z,2.28
2022-09-18T07:14:24.479Z,1.58
2022-09-18T07:15:11.257Z,2.03
2022-09-18T07:15:58.644Z,2.15
2022-09-18T07:16:45.387Z,2.10
2022-09-18T07:17:32.335Z,2.05
2022-09-18T07:18:19.035Z,2.45
2022-09-18T07:19:06.862Z,2.08
2022-09-18T07:19:53.838Z,1.92
2022-09-18T07:20:40.497Z,2.25
2022-09-18T07:21:27.466Z,1.65
2022-09-18T07:22:14.146Z,1.50
2022-09-18T07:23:02.130Z,1.90
2022-09-18T07:23:48.951Z,1.60
2022-09-18T07:24:36.936Z,1.73
2022-09-18T07:25:24.000Z,1.95
2022-09-18T07:26:10.967Z,2.20
2022-09-18T07:26:58.387Z,2.08
2022-09-18T07:27:45.066Z,1.67
2022-09-18T07:28:32.018Z,1.85
2022-09-18T07:29:18.906Z,2.12
2022-09-18T07:30:06.167Z,1.77
2022-09-18T07:30:52.864Z,1.73
2022-09-18T07:31:39.755Z,2.03
2022-09-18T07:32:27.346Z,1.75
2022-09-18T07:33:14.126Z,1.58
2022-09-18T07:34:00.949Z,2.05
2022-09-18T07:34:47.915Z,1.67
2022-09-18T07:35:34.706Z,1.42
2022-09-18T07:36:22.278Z,2.20
2022-09-18T07:37:08.928Z,1.95
2022-09-18T07:38:04.058Z,1.65
2022-09-18T07:38:51.705Z,1.87
2022-09-18T07:39:40.247Z,1.95
2022-09-18T07:40:27.631Z,1.85
2022-09-18T07:41:14.356Z,1.70
2022-09-18T07:42:03.601Z,2.10
2022-09-18T07:42:52.424Z,2.20
2022-09-18T07:43:39.254Z,1.83
2022-09-18T07:44:27.828Z,1.87
2022-09-18T07:45:14.698Z,1.95
2022-09-18T07:46:02.515Z,1.73
2022-09-18T07:46:51.170Z,1.95
2022-09-18T07:47:38.019Z,2.22
2022-09-18T07:48:24.886Z,2.10
2022-09-18T07:49:11.826Z,1.30
2022-09-18T07:49:58.474Z,2.12
2022-09-18T07:50:46.618Z,1.92
2022-09-18T07:51:33.382Z,2.50
2022-09-18T07:52:20.426Z,2.62
2022-09-18T07:53:09.093Z,1.30
2022-09-18T07:53:55.741Z,2.00
2022-09-18T07:54:42.348Z,1.52
2022-09-18T07:55:29.097Z,2.15
2022-09-18T07:56:16.066Z,2.20
2022-09-18T07:57:02.908Z,1.92
2022-09-18T07:57:55.571Z,1.77
2022-09-18T07:58:42.407Z,2.00
2022-09-18T07:59:30.387Z,1.75
2022-09-18T08:00:17.197Z,1.27
2022-09-18T08:01:05.208Z,1.85
2022-09-18T08:01:53.085Z,1.98
2022-09-18T08:02:40.129Z,1.85
2022-09-18T08:03:26.979Z,2.10
2022-09-18T08:04:13.637Z,1.85
2022-09-18T08:05:00.397Z,1.85
2022-09-18T08:05:47.237Z,1.95
2022-09-18T08:06:34.007Z,2.40
2022-09-18T08:07:21.907Z,1.85
2022-09-18T08:08:13.109Z,1.87
2022-09-18T08:08:59.924Z,2.08
2022-09-18T08:09:46.634Z,1.90
2022-09-18T08:10:34.017Z,2.12
2022-09-18T08:11:21.046Z,2.00
2022-09-18T08:12:07.986Z,2.30
2022-09-18T08:12:54.820Z,2.25
2022-09-18T08:13:42.217Z,2.20
2022-09-18T08:14:29.466Z,1.85
2022-09-18T08:15:16.188Z,1.65
2022-09-18T08:16:04.750Z,1.75
2022-09-18T08:16:52.156Z,2.67
2022-09-18T08:17:46.124Z,2.50
2022-09-18T08:18:33.342Z,2.08
2022-09-18T08:19:20.616Z,2.75
2022-09-18T08:20:09.326Z,1.95
2022-09-18T08:20:57.101Z,2.47
2022-09-18T08:21:44.016Z,3.12
2022-09-18T08:22:30.833Z,2.08
2022-09-18T08:23:17.566Z,2.40
2022-09-18T08:24:04.548Z,2.08
2022-09-18T08:24:51.336Z,2.08
2022-09-18T08:25:38.698Z,2.55
2022-09-18T08:26:25.498Z,1.85
2022-09-18T08:27:12.892Z,2.12
2022-09-18T08:28:04.380Z,2.28
2022-09-18T08:28:51.236Z,2.00
2022-09-18T08:29:38.127Z,2.17
2022-09-18T08:30:24.889Z,2.20
2022-09-18T08:31:11.667Z,1.95
2022-09-18T08:31:58.567Z,2.08
2022-09-18T08:32:45.503Z,1.80
2022-09-18T08:33:32.231Z,2.30
2022-09-18T08:34:18.917Z,2.20
2022-09-18T08:35:06.917Z,1.80
2022-09-18T08:35:55.227Z,1.98
2022-09-18T08:36:41.987Z,1.90
2022-09-18T08:37:29.777Z,2.12
2022-09-18T08:38:16.716Z,2.00
2022-09-18T08:39:03.583Z,2.12
2022-09-18T08:39:50.912Z,2.10
2022-09-18T08:41:12.797Z,1.83
2022-09-18T08:42:03.308Z,1.58
2022-09-18T08:44:01.254Z,2.28
2022-09-18T08:45:05.692Z,1.95
2022-09-18T08:46:02.606Z,2.12
2022-09-18T08:47:04.095Z,1.83
2022-09-18T08:47:55.506Z,2.05
2022-09-18T08:48:54.986Z,2.12
2022-09-18T08:49:57.764Z,1.77
2022-09-18T08:50:54.627Z,2.05
2022-09-18T08:51:50.047Z,3.17
2022-09-18T08:52:42.386Z,3.30
2022-09-18T08:53:34.898Z,2.30
2022-09-18T08:54:27.697Z,2.75
2022-09-18T08:55:17.157Z,2.08
2022-09-18T08:56:04.717Z,1.90
2022-09-18T08:56:53.470Z,2.08
2022-09-18T08:57:55.808Z,2.08
2022-09-18T08:58:51.917Z,1.67
2022-09-18T08:59:42.542Z,2.33
2022-09-18T09:00:32.788Z,2.47
2022-09-18T09:01:20.260Z,2.20
2022-09-18T09:02:32.630Z,2.47
2022-09-18T09:03:41.586Z,1.92
2022-09-18T09:04:28.655Z,2.25
2022-09-18T09:05:18.506Z,2.30
2022-09-18T09:06:27.757Z,2.30
2022-09-18T09:07:25.156Z,2.35
2022-09-18T09:08:33.097Z,1.90
2022-09-18T09:09:53.861Z,1.80
2022-09-18T09:10:43.808Z,2.03
2022-09-18T09:12:03.987Z,2.83
2022-09-18T09:13:23.050Z,1.97
2022-09-18T09:14:58.054Z,1.70
2022-09-18T09:16:03.771Z,2.17
2022-09-18T09:16:51.866Z,2.00
2022-09-18T09:17:47.097Z,1.98
2022-09-18T09:18:41.185Z,2.33
2022-09-18T09:19:55.065Z,2.22
2022-09-18T09:20:58.856Z,2.08
2022-09-18T09:22:19.577Z,1.60
2022-09-18T09:23:18.671Z,1.80
2022-09-18T09:24:34.021Z,1.80
2022-09-18T09:25:44.488Z,2.80
2022-09-18T09:26:32.616Z,2.00
2022-09-18T09:27:40.751Z,2.12
2022-09-18T09:28:34.496Z,1.85
2022-09-18T09:29:33.826Z,1.95
2022-09-18T09:30:20.997Z,1.77
2022-09-18T09:31:08.958Z,1.62
2022-09-18T09:31:58.704Z,2.05
2022-09-18T09:32:50.288Z,1.45
2022-09-18T09:33:42.967Z,2.10
2022-09-18T09:34:45.367Z,2.15
2022-09-18T09:35:37.278Z,1.73
2022-09-18T09:36:27.601Z,1.90
2022-09-18T09:37:21.457Z,1.70
2022-09-18T09:38:51.728Z,1.77
2022-09-18T09:40:12.354Z,1.60
2022-09-18T09:41:07.467Z,1.87
2022-09-18T09:42:03.656Z,1.92
2022-09-18T09:42:56.216Z,1.65
2022-09-18T09:44:03.268Z,1.27
2022-09-18T09:44:50.346Z,1.67
2022-09-18T09:45:45.156Z,1.48
2022-09-18T09:46:47.225Z,1.27
2022-09-18T09:47:34.021Z,1.70
2022-09-18T09:48:23.698Z,1.50
2022-09-18T09:49:16.698Z,1.40
2022-09-18T09:50:13.348Z,1.30
2022-09-18T09:51:25.706Z,1.58
2022-09-18T09:52:27.151Z,1.60
2022-09-18T09:53:14.246Z,1.75
2022-09-18T09:54:02.161Z,1.60
2022-09-18T09:55:21.467Z,1.50
2022-09-18T09:56:28.917Z,1.65
2022-09-18T09:57:28.828Z,1.48
2022-09-18T09:58:18.585Z,1.52
2022-09-18T09:59:39.297Z,1.73
2022-09-18T10:00:26.207Z,1.80
2022-09-18T10:01:23.582Z,1.77
2022-09-18T10:03:01.642Z,0.95
2022-09-18T10:03:59.427Z,1.73
2022-09-18T10:04:54.926Z,1.23
2022-09-18T10:05:54.980Z,1.55
2022-09-18T10:06:56.169Z,1.60
2022-09-18T10:07:48.366Z,1.65
2022-09-18T10:08:49.777Z,1.27
2022-09-18T10:09:52.758Z,1.77
2022-09-18T10:10:50.496Z,1.45
2022-09-18T10:11:40.418Z,1.45
2022-09-18T10:12:37.657Z,1.30
2022-09-18T10:13:28.967Z,1.73
2022-09-18T10:14:21.438Z,1.48
2022-09-18T10:15:20.838Z,1.55
2022-09-18T10:16:22.495Z,1.35
2022-09-18T10:17:10.561Z,1.35
2022-09-18T10:18:00.082Z,2.03
2022-09-18T10:18:50.850Z,1.65
2022-09-18T10:19:40.207Z,1.62
2022-09-18T10:20:29.527Z,0.90
2022-09-18T10:21:18.617Z,1.12
2022-09-18T10:22:07.878Z,1.42
2022-09-18T10:22:57.997Z,1.25
2022-09-18T10:23:50.306Z,1.70
2022-09-18T10:24:58.327Z,1.73
2022-09-18T10:25:45.035Z,1.35
2022-09-18T10:26:43.022Z,1.02
2022-09-18T10:27:29.916Z,1.75
2022-09-18T10:28:16.727Z,1.23
2022-09-18T10:29:03.677Z,1.45
2022-09-18T10:29:53.528Z,1.55
2022-09-18T10:31:07.330Z,1.83
2022-09-18T10:31:57.144Z,1.50
2022-09-18T10:32:44.226Z,1.80
2022-09-18T10:33:31.987Z,1.20
2022-09-18T10:34:37.040Z,1.48
2022-09-18T10:35:42.349Z,1.75
2022-09-18T10:36:39.319Z,1.35
2022-09-18T10:37:29.110Z,1.73
2022-09-18T10:38:30.574Z,1.52
2022-09-18T10:39:39.067Z,1.40
2022-09-18T10:40:44.155Z,1.77
2022-09-18T10:41:33.636Z,1.62
2022-09-18T10:42:23.150Z,1.00
2022-09-18T10:43:19.462Z,1.42
2022-09-18T10:44:20.968Z,1.90
2022-09-18T10:45:21.667Z,1.15
2022-09-18T10:47:02.906Z,1.05
2022-09-18T10:47:50.086Z,1.65
2022-09-18T10:48:36.867Z,1.08
2022-09-18T10:49:45.916Z,1.37
2022-09-18T10:50:34.545Z,1.85
2022-09-18T10:51:22.057Z,1.62
2022-09-18T10:52:20.195Z,1.25
2022-09-18T10:53:31.166Z,1.20
2022-09-18T10:55:09.524Z,2.33
2022-09-18T10:56:03.656Z,1.05
2022-09-18T10:56:50.506Z,1.33
2022-09-18T10:57:56.705Z,0.90
2022-09-18T10:58:45.186Z,1.27
2022-09-18T10:59:34.081Z,1.37
2022-09-18T11:00:20.812Z,1.27
2022-09-18T11:01:08.400Z,1.25
2022-09-18T11:02:03.310Z,1.67
2022-09-18T11:02:53.869Z,1.27
2022-09-18T11:04:33.426Z,1.20
2022-09-18T11:05:21.967Z,2.05
2022-09-18T11:06:29.537Z,1.10
2022-09-18T11:07:16.296Z,1.73
2022-09-18T11:08:13.777Z,0.90
2022-09-18T11:09:02.920Z,1.25
2022-09-18T11:09:50.687Z,1.42
2022-09-18T11:10:37.876Z,0.77
2022-09-18T11:11:36.327Z,1.80
2022-09-18T11:12:25.088Z,1.17
2022-09-18T11:13:21.618Z,1.40
2022-09-18T11:14:30.397Z,1.45
2022-09-18T11:15:18.536Z,1.70
2022-09-18T11:16:05.780Z,1.50
2022-09-18T11:16:56.946Z,1.05
2022-09-18T11:17:55.359Z,1.15
2022-09-18T11:18:42.079Z,1.48
2022-09-18T11:19:32.066Z,1.45